createdAt,value
2017-11-29T00:00:25.510Z,28.92
2017-11-29T00:02:52.979Z,25.48
2017-11-29T00:05:20.435Z,25.62
2017-11-29T00:07:47.886Z,25.85
2017-11-29T00:10:15.345Z,25.73
2017-11-29T00:12:42.799Z,26.37
2017-11-29T00:15:10.256Z,25.60
2017-11-29T00:17:37.715Z,26.83
2017-11-29T00:20:05.171Z,26.65
2017-11-29T00:22:32.623Z,27.30
2017-11-29T00:25:00.069Z,26.80
2017-11-29T00:27:27.534Z,28.37
2017-11-29T00:29:55.003Z,27.20
2017-11-29T00:32:22.475Z,28.60
2017-11-29T00:34:49.916Z,32.70
2017-11-29T00:37:17.350Z,30.12
2017-11-29T00:39:44.815Z,28.27
2017-11-29T00:42:12.241Z,29.27
2017-11-29T00:44:39.685Z,30.77
2017-11-29T00:47:07.923Z,30.12
2017-11-29T00:49:35.380Z,30.67
2017-11-29T00:52:02.840Z,30.05
2017-11-29T00:54:31.781Z,29.73
2017-11-29T00:56:59.221Z,30.60
2017-11-29T00:59:27.464Z,29.45
2017-11-29T01:01:54.916Z,29.75
2017-11-29T01:04:22.375Z,32.08
2017-11-29T01:06:49.820Z,30.40
2017-11-29T01:09:17.279Z,28.87
2017-11-29T01:11:44.732Z,29.00
2017-11-29T01:14:12.199Z,31.50
2017-11-29T01:16:39.647Z,27.70
2017-11-29T01:19:07.116Z,29.00
2017-11-29T01:21:34.562Z,28.30
2017-11-29T01:24:01.989Z,32.83
2017-11-29T01:26:29.423Z,28.33
2017-11-29T01:28:56.852Z,32.25
2017-11-29T01:31:25.060Z,29.65
2017-11-29T01:33:52.553Z,30.40
2017-11-29T01:36:20.000Z,30.12
2017-11-29T01:38:47.483Z,30.02
2017-11-29T01:41:14.941Z,29.50
2017-11-29T01:43:42.380Z,33.67
2017-11-29T01:46:09.834Z,33.20
2017-11-29T01:48:37.297Z,31.50
2017-11-29T01:51:04.728Z,31.55
2017-11-29T01:53:32.176Z,33.85
2017-11-29T01:55:59.670Z,29.27
2017-11-29T01:58:27.325Z,30.73
2017-11-29T02:00:54.878Z,32.67
2017-11-29T02:03:22.340Z,32.78
2017-11-29T02:05:49.799Z,34.13
2017-11-29T02:08:17.237Z,31.48
2017-11-29T02:10:44.674Z,34.45
2017-11-29T02:13:12.168Z,32.28
2017-11-29T02:15:39.585Z,32.40
2017-11-29T02:18:07.082Z,30.70
2017-11-29T02:20:34.538Z,31.35
2017-11-29T02:23:01.980Z,33.05
2017-11-29T02:25:29.439Z,30.05
2017-11-29T02:27:56.882Z,31.73
2017-11-29T02:30:24.329Z,31.17
2017-11-29T02:32:51.807Z,32.80
2017-11-29T02:35:19.267Z,32.95
2017-11-29T02:37:46.720Z,31.77
2017-11-29T02:40:26.167Z,33.00
2017-11-29T02:42:53.632Z,33.83
2017-11-29T02:45:21.094Z,32.20
2017-11-29T02:47:48.521Z,35.20
2017-11-29T02:50:15.972Z,35.47
2017-11-29T02:52:43.405Z,33.28
2017-11-29T02:55:10.857Z,37.20
2017-11-29T02:57:38.324Z,35.58
2017-11-29T03:00:06.524Z,37.17
2017-11-29T03:02:34.002Z,35.47
2017-11-29T03:05:01.440Z,32.28
2017-11-29T03:07:28.879Z,34.55
2017-11-29T03:09:56.351Z,32.58
2017-11-29T03:12:23.796Z,36.45
2017-11-29T03:14:51.232Z,33.28
2017-11-29T03:17:18.672Z,36.58
2017-11-29T03:19:46.168Z,35.60
2017-11-29T03:22:13.624Z,35.60
2017-11-29T03:24:41.084Z,33.38
2017-11-29T03:27:08.558Z,33.75
2017-11-29T03:29:36.117Z,31.75
2017-11-29T03:32:03.558Z,35.05
2017-11-29T03:34:31.005Z,32.25
2017-11-29T03:36:58.453Z,33.33
2017-11-29T03:39:25.932Z,33.20
2017-11-29T03:41:53.375Z,32.17
2017-11-29T03:44:20.832Z,34.10
2017-11-29T03:46:48.304Z,32.30
2017-11-29T03:49:15.852Z,35.92
2017-11-29T03:51:43.307Z,33.70
2017-11-29T03:54:10.860Z,31.12
2017-11-29T03:56:38.320Z,36.55
2017-11-29T03:59:05.748Z,35.97
2017-11-29T04:01:33.188Z,33.90
2017-11-29T04:04:00.895Z,34.47
2017-11-29T04:06:28.353Z,34.85
2017-11-29T04:08:55.788Z,33.42
2017-11-29T04:11:23.235Z,37.00
2017-11-29T04:13:50.833Z,36.53
2017-11-29T04:16:18.272Z,36.13
2017-11-29T04:18:45.747Z,32.15
2017-11-29T04:21:13.308Z,35.75
2017-11-29T04:23:40.754Z,32.22
2017-11-29T04:26:08.248Z,36.40
2017-11-29T04:28:36.452Z,33.80
2017-11-29T04:31:03.908Z,33.03
2017-11-29T04:33:31.511Z,31.60
2017-11-29T04:35:58.938Z,33.00
2017-11-29T04:38:26.384Z,32.13
2017-11-29T04:40:53.832Z,31.62
2017-11-29T04:43:21.291Z,34.92
2017-11-29T04:45:48.720Z,33.53
2017-11-29T04:48:16.944Z,33.85
2017-11-29T04:50:44.380Z,32.13
2017-11-29T04:53:11.819Z,35.10
2017-11-29T04:55:39.337Z,34.37
2017-11-29T04:58:06.776Z,32.40
2017-11-29T05:00:34.241Z,33.43
2017-11-29T05:03:01.689Z,34.95
2017-11-29T05:05:29.129Z,36.17
2017-11-29T05:07:56.571Z,35.47
2017-11-29T05:10:24.008Z,35.55
2017-11-29T05:12:52.221Z,36.35
2017-11-29T05:15:19.668Z,36.60
2017-11-29T05:17:47.151Z,36.50
2017-11-29T05:20:14.588Z,34.72
2017-11-29T05:22:42.045Z,35.17
2017-11-29T05:25:09.489Z,35.23
2017-11-29T05:27:36.935Z,34.50
2017-11-29T05:30:04.402Z,36.17
2017-11-29T05:32:31.836Z,35.92
2017-11-29T05:34:59.288Z,36.40
2017-11-29T05:37:27.512Z,34.38
2017-11-29T05:39:54.940Z,34.00
2017-11-29T05:42:22.532Z,34.80
2017-11-29T05:44:49.992Z,37.30
2017-11-29T05:47:17.443Z,37.25
2017-11-29T05:49:44.891Z,35.00
2017-11-29T05:52:12.349Z,36.03
2017-11-29T05:54:39.800Z,34.13
2017-11-29T05:57:07.240Z,34.33
2017-11-29T05:59:34.724Z,35.03
2017-11-29T06:02:02.170Z,35.05
2017-11-29T06:04:29.612Z,38.10
2017-11-29T06:06:57.083Z,41.40
2017-11-29T06:09:24.552Z,35.93
2017-11-29T06:11:51.996Z,38.50
2017-11-29T06:14:19.529Z,38.00
2017-11-29T06:16:46.985Z,39.28
2017-11-29T06:19:14.440Z,36.50
2017-11-29T06:21:42.009Z,37.35
2017-11-29T06:24:09.448Z,38.42
2017-11-29T06:26:36.887Z,38.20
2017-11-29T06:29:05.197Z,37.70
2017-11-29T06:31:32.636Z,38.40
2017-11-29T06:34:00.112Z,38.35
2017-11-29T06:36:27.773Z,38.40
2017-11-29T06:38:55.234Z,38.30
2017-11-29T06:41:22.708Z,36.38
2017-11-29T06:43:50.167Z,35.80
2017-11-29T06:46:17.628Z,39.25
2017-11-29T06:48:45.080Z,41.03
2017-11-29T06:51:12.540Z,42.35
2017-11-29T06:53:39.982Z,40.88
2017-11-29T06:56:07.433Z,39.90
2017-11-29T06:58:34.907Z,40.53
2017-11-29T07:01:02.353Z,43.03
2017-11-29T07:03:29.792Z,42.65
2017-11-29T07:05:57.240Z,40.28
2017-11-29T07:08:24.686Z,41.03
2017-11-29T07:10:52.178Z,41.30
2017-11-29T07:13:19.763Z,40.72
2017-11-29T07:15:47.299Z,43.67
2017-11-29T07:18:14.756Z,38.65
2017-11-29T07:20:42.196Z,38.70
2017-11-29T07:23:09.640Z,38.30
2017-11-29T07:25:37.096Z,42.58
2017-11-29T07:28:04.550Z,38.33
2017-11-29T07:30:32.186Z,39.63
2017-11-29T07:33:00.600Z,41.05
2017-11-29T07:35:28.088Z,39.15
2017-11-29T07:37:55.650Z,39.97
2017-11-29T07:40:23.104Z,41.60
2017-11-29T07:42:50.669Z,39.28
2017-11-29T07:45:18.127Z,41.63
2017-11-29T07:47:45.581Z,46.45
2017-11-29T07:50:13.879Z,42.58
2017-11-29T07:52:41.417Z,42.27
2017-11-29T07:55:08.856Z,44.90
2017-11-29T07:57:36.422Z,46.55
2017-11-29T08:00:03.995Z,45.60
2017-11-29T08:02:31.432Z,47.40
2017-11-29T08:04:58.874Z,45.63
2017-11-29T08:07:26.339Z,46.83
2017-11-29T08:09:53.796Z,43.20
2017-11-29T08:12:21.321Z,46.63
2017-11-29T08:14:48.810Z,44.50
2017-11-29T08:17:16.249Z,42.20
2017-11-29T08:19:43.723Z,40.97
2017-11-29T08:22:11.293Z,43.17
2017-11-29T08:24:38.824Z,40.83
2017-11-29T08:27:06.253Z,40.88
2017-11-29T08:29:33.757Z,41.63
2017-11-29T08:32:01.195Z,40.40
2017-11-29T08:34:28.640Z,37.30
2017-11-29T08:36:56.080Z,35.95
2017-11-29T08:39:23.526Z,36.33
2017-11-29T08:41:50.977Z,37.47
2017-11-29T08:44:18.435Z,37.42
2017-11-29T08:46:46.073Z,37.33
2017-11-29T08:49:13.725Z,37.45
2017-11-29T08:51:41.170Z,36.45
2017-11-29T08:54:08.610Z,39.22
2017-11-29T08:56:36.052Z,39.83
2017-11-29T08:59:03.612Z,39.40
2017-11-29T09:01:31.043Z,37.63
2017-11-29T09:03:59.262Z,39.13
2017-11-29T09:06:26.831Z,36.60
2017-11-29T09:08:54.279Z,39.78
2017-11-29T09:11:21.736Z,41.37
2017-11-29T09:13:49.176Z,40.42
2017-11-29T09:16:16.617Z,40.70
2017-11-29T09:18:44.108Z,38.95
2017-11-29T09:21:11.544Z,38.20
2017-11-29T09:23:39.016Z,36.85
2017-11-29T09:26:06.584Z,35.72
2017-11-29T09:28:34.040Z,34.78
2017-11-29T09:31:01.495Z,35.40
2017-11-29T09:33:29.025Z,36.45
2017-11-29T09:35:56.466Z,35.25
2017-11-29T09:38:23.908Z,33.35
2017-11-29T09:40:51.354Z,34.70
2017-11-29T09:43:19.568Z,34.90
2017-11-29T09:45:47.150Z,36.55
2017-11-29T09:48:14.636Z,34.15
2017-11-29T09:50:42.835Z,37.65
2017-11-29T09:53:10.336Z,36.60
2017-11-29T09:55:37.803Z,38.17
2017-11-29T09:58:05.235Z,35.13
2017-11-29T10:00:32.692Z,41.85
2017-11-29T10:03:00.251Z,37.72
2017-11-29T10:05:27.838Z,35.28
2017-11-29T10:07:55.269Z,33.65
2017-11-29T10:10:22.729Z,33.50
2017-11-29T10:12:50.187Z,34.55
2017-11-29T10:15:17.618Z,30.57
2017-11-29T10:17:45.064Z,33.13
2017-11-29T10:20:12.600Z,32.97
2017-11-29T10:22:40.799Z,32.10
2017-11-29T10:25:08.275Z,31.60
2017-11-29T10:27:35.716Z,33.28
2017-11-29T10:30:03.170Z,32.85
2017-11-29T10:32:30.620Z,33.08
2017-11-29T10:34:58.056Z,30.40
2017-11-29T10:37:26.263Z,29.67
2017-11-29T10:39:53.705Z,30.83
2017-11-29T10:42:21.216Z,29.40
2017-11-29T10:44:48.877Z,28.17
2017-11-29T10:47:16.415Z,31.30
2017-11-29T10:49:43.979Z,30.55
2017-11-29T10:52:11.433Z,33.38
2017-11-29T10:54:39.012Z,30.92
2017-11-29T10:57:06.469Z,31.55
2017-11-29T10:59:34.195Z,29.40
2017-11-29T11:02:01.608Z,30.12
2017-11-29T11:04:29.866Z,29.60
2017-11-29T11:06:58.116Z,31.37
2017-11-29T11:09:25.549Z,29.37
2017-11-29T11:11:53.028Z,29.67
2017-11-29T11:14:20.465Z,30.50
2017-11-29T11:16:47.905Z,30.65
2017-11-29T11:19:15.406Z,30.60
2017-11-29T11:21:42.856Z,31.83
2017-11-29T11:24:10.310Z,31.75
2017-11-29T11:26:37.744Z,30.42
2017-11-29T11:29:05.175Z,31.77
2017-11-29T11:31:32.644Z,33.45
2017-11-29T11:34:00.085Z,34.50
2017-11-29T11:36:28.279Z,31.73
2017-11-29T11:38:55.726Z,31.93
2017-11-29T11:41:23.164Z,34.45
2017-11-29T11:43:50.622Z,32.78
2017-11-29T11:46:18.846Z,30.27
2017-11-29T11:48:46.341Z,32.05
2017-11-29T11:51:14.561Z,29.50
2017-11-29T11:53:41.988Z,29.70
2017-11-29T11:56:09.501Z,31.00
2017-11-29T11:58:36.941Z,31.67
2017-11-29T12:01:04.387Z,29.85
2017-11-29T12:03:31.829Z,31.67
2017-11-29T12:05:59.276Z,31.80
2017-11-29T12:08:26.739Z,33.63
2017-11-29T12:10:54.209Z,40.65
2017-11-29T12:13:21.684Z,40.22
2017-11-29T12:15:49.142Z,37.15
2017-11-29T12:18:16.572Z,34.45
2017-11-29T12:20:44.036Z,33.80
2017-11-29T12:23:11.507Z,31.90
2017-11-29T12:25:38.956Z,32.30
2017-11-29T12:28:06.507Z,33.53
2017-11-29T12:30:34.091Z,32.60
2017-11-29T12:33:01.518Z,33.30
2017-11-29T12:35:28.992Z,33.17
2017-11-29T12:37:56.430Z,29.08
2017-11-29T12:40:23.904Z,30.52
2017-11-29T12:42:51.377Z,30.98
2017-11-29T12:45:18.824Z,31.73
2017-11-29T12:47:46.259Z,31.80
2017-11-29T12:50:25.616Z,33.42
2017-11-29T12:52:53.072Z,32.97
2017-11-29T12:55:20.510Z,32.03
2017-11-29T12:57:47.954Z,33.92
2017-11-29T13:00:15.735Z,31.70
2017-11-29T13:02:43.172Z,34.10
2017-11-29T13:05:10.621Z,31.20
2017-11-29T13:07:38.080Z,31.37
2017-11-29T13:10:05.584Z,33.85
2017-11-29T13:12:33.035Z,35.15
2017-11-29T13:15:00.475Z,32.03
2017-11-29T13:17:27.920Z,34.78
2017-11-29T13:19:55.359Z,34.65
2017-11-29T13:22:22.886Z,32.53
2017-11-29T13:24:50.324Z,33.20
2017-11-29T13:27:17.776Z,32.20
2017-11-29T13:29:45.225Z,32.22
2017-11-29T13:32:12.684Z,28.80
2017-11-29T13:34:40.135Z,33.25
2017-11-29T13:37:07.562Z,32.00
2017-11-29T13:39:35.050Z,28.83
2017-11-29T13:42:02.484Z,32.05
2017-11-29T13:44:29.924Z,31.50
2017-11-29T13:46:57.414Z,30.27
2017-11-29T13:49:24.976Z,28.00
2017-11-29T13:51:52.416Z,30.58
2017-11-29T13:54:19.869Z,31.23
2017-11-29T13:56:47.447Z,31.52
2017-11-29T13:59:14.945Z,33.20
2017-11-29T14:01:43.209Z,34.80
2017-11-29T14:04:10.740Z,32.23
2017-11-29T14:06:38.214Z,30.23
2017-11-29T14:09:05.741Z,30.10
2017-11-29T14:11:33.197Z,31.20
2017-11-29T14:14:00.654Z,28.62
2017-11-29T14:16:28.120Z,27.20
2017-11-29T14:18:55.566Z,29.98
2017-11-29T14:21:23.009Z,26.65
2017-11-29T14:23:50.445Z,32.83
2017-11-29T14:26:18.026Z,29.17
2017-11-29T14:28:45.533Z,29.20
2017-11-29T14:31:13.065Z,28.08
2017-11-29T14:33:40.524Z,31.02
2017-11-29T14:36:07.977Z,33.83
2017-11-29T14:38:35.420Z,29.67
2017-11-29T14:41:02.877Z,31.75
2017-11-29T14:43:30.321Z,33.17
2017-11-29T14:45:57.772Z,29.80
2017-11-29T14:48:25.238Z,33.25
2017-11-29T14:50:52.667Z,33.17
2017-11-29T14:53:20.896Z,34.05
2017-11-29T14:55:49.859Z,30.40
2017-11-29T14:58:17.333Z,31.85
2017-11-29T15:00:44.766Z,29.83
2017-11-29T15:03:12.248Z,32.75
2017-11-29T15:05:39.734Z,29.58
2017-11-29T15:08:07.340Z,28.00
2017-11-29T15:10:34.774Z,28.77
2017-11-29T15:13:02.271Z,32.55
2017-11-29T15:15:29.733Z,29.40
2017-11-29T15:17:57.156Z,29.17
2017-11-29T15:20:24.643Z,29.95
2017-11-29T15:22:52.116Z,31.45
2017-11-29T15:25:19.556Z,32.25
2017-11-29T15:27:47.802Z,37.78
2017-11-29T15:30:15.258Z,36.00
2017-11-29T15:32:42.700Z,35.08
2017-11-29T15:35:10.140Z,38.65
2017-11-29T15:37:38.387Z,36.25
2017-11-29T15:40:06.237Z,34.95
2017-11-29T15:42:33.669Z,32.33
2017-11-29T15:45:01.131Z,33.78
2017-11-29T15:47:28.632Z,32.00
2017-11-29T15:49:56.077Z,31.90
2017-11-29T15:52:23.603Z,33.25
2017-11-29T15:54:51.046Z,31.37
2017-11-29T15:57:18.467Z,37.50
2017-11-29T15:59:46.691Z,33.43
2017-11-29T16:02:14.264Z,36.70
2017-11-29T16:04:41.722Z,38.28
2017-11-29T16:07:09.167Z,37.22
2017-11-29T16:09:36.624Z,35.25
2017-11-29T16:12:04.087Z,34.25
2017-11-29T16:14:31.562Z,37.15
2017-11-29T16:16:59.017Z,39.90
2017-11-29T16:19:26.459Z,37.30
2017-11-29T16:21:54.036Z,37.28
2017-11-29T16:24:21.503Z,37.15
2017-11-29T16:26:48.951Z,42.35
2017-11-29T16:29:16.389Z,39.70
2017-11-29T16:31:43.844Z,44.77
2017-11-29T16:34:11.285Z,45.47
2017-11-29T16:36:38.843Z,42.85
2017-11-29T16:39:06.272Z,41.90
2017-11-29T16:41:34.581Z,39.83
2017-11-29T16:44:02.011Z,41.75
2017-11-29T16:46:29.448Z,37.97
2017-11-29T16:48:57.656Z,36.35
2017-11-29T16:51:25.212Z,34.75
2017-11-29T16:53:52.813Z,34.80
2017-11-29T16:56:20.367Z,29.73
2017-11-29T16:58:47.828Z,32.60
2017-11-29T17:01:15.284Z,33.20
2017-11-29T17:03:42.960Z,33.40
2017-11-29T17:06:10.402Z,34.03
2017-11-29T17:08:37.865Z,30.23
2017-11-29T17:11:05.316Z,31.73
2017-11-29T17:13:32.777Z,28.30
2017-11-29T17:16:00.213Z,31.73
2017-11-29T17:18:27.660Z,33.30
2017-11-29T17:20:55.101Z,29.25
2017-11-29T17:23:22.759Z,29.98
2017-11-29T17:25:50.336Z,28.75
2017-11-29T17:28:17.803Z,35.33
2017-11-29T17:30:45.252Z,33.00
2017-11-29T17:33:12.689Z,35.10
2017-11-29T17:35:40.120Z,35.55
2017-11-29T17:38:07.730Z,37.28
2017-11-29T17:40:35.300Z,37.38
2017-11-29T17:43:02.740Z,38.83
2017-11-29T17:45:31.248Z,36.17
2017-11-29T17:47:58.700Z,43.53
2017-11-29T17:50:26.128Z,38.88
2017-11-29T17:52:53.583Z,36.78
2017-11-29T17:55:21.024Z,34.30
2017-11-29T17:57:48.612Z,38.40
2017-11-29T18:00:16.071Z,38.17
2017-11-29T18:02:43.548Z,36.42
2017-11-29T18:05:10.939Z,36.17
2017-11-29T18:07:38.407Z,39.78
2017-11-29T18:10:06.233Z,40.47
2017-11-29T18:12:33.670Z,36.65
2017-11-29T18:15:01.110Z,36.78
2017-11-29T18:17:28.655Z,37.53
2017-11-29T18:19:56.101Z,36.58
2017-11-29T18:22:23.539Z,37.65
2017-11-29T18:24:51.007Z,36.42
2017-11-29T18:27:18.436Z,37.72
2017-11-29T18:29:45.945Z,40.72
2017-11-29T18:32:13.401Z,37.00
2017-11-29T18:34:40.978Z,45.42
2017-11-29T18:37:08.424Z,39.00
2017-11-29T18:39:35.985Z,38.10
2017-11-29T18:42:03.399Z,39.05
2017-11-29T18:44:30.847Z,40.67
2017-11-29T18:46:58.282Z,40.28
2017-11-29T18:49:26.520Z,40.83
2017-11-29T18:51:53.985Z,39.67
2017-11-29T18:54:21.434Z,37.83
2017-11-29T18:56:48.895Z,40.92
2017-11-29T18:59:16.431Z,42.13
2017-11-29T19:01:43.864Z,40.88
2017-11-29T19:04:11.459Z,39.35
2017-11-29T19:06:38.924Z,40.30
2017-11-29T19:09:06.554Z,41.30
2017-11-29T19:11:34.001Z,40.78
2017-11-29T19:14:01.445Z,45.75
2017-11-29T19:16:28.898Z,39.80
2017-11-29T19:18:56.364Z,44.78
2017-11-29T19:21:24.841Z,45.80
2017-11-29T19:23:53.061Z,41.47
2017-11-29T19:26:20.502Z,47.70
2017-11-29T19:28:48.422Z,43.97
2017-11-29T19:31:16.680Z,47.95
2017-11-29T19:33:44.135Z,45.40
2017-11-29T19:36:11.566Z,46.15
2017-11-29T19:38:39.031Z,50.87
2017-11-29T19:41:06.517Z,51.77
2017-11-29T19:43:34.719Z,51.17
2017-11-29T19:46:02.156Z,53.45
2017-11-29T19:48:30.369Z,49.90
2017-11-29T19:50:57.854Z,50.92
2017-11-29T19:53:25.482Z,51.67
2017-11-29T19:55:52.914Z,54.30
2017-11-29T19:58:20.356Z,52.03
2017-11-29T20:00:48.826Z,55.00
2017-11-29T20:03:16.272Z,55.25
2017-11-29T20:05:43.721Z,54.92
2017-11-29T20:08:11.171Z,53.67
2017-11-29T20:10:38.622Z,57.90
2017-11-29T20:13:06.081Z,55.38
2017-11-29T20:15:33.544Z,54.95
2017-11-29T20:18:01.002Z,55.88
2017-11-29T20:20:28.460Z,58.60
2017-11-29T20:22:55.883Z,54.78
2017-11-29T20:25:23.325Z,50.28
2017-11-29T20:27:50.796Z,55.42
2017-11-29T20:30:18.292Z,50.03
2017-11-29T20:32:45.736Z,50.75
2017-11-29T20:35:13.304Z,48.60
2017-11-29T20:37:40.962Z,48.33
2017-11-29T20:40:08.597Z,49.58
2017-11-29T20:42:36.056Z,51.60
2017-11-29T20:45:03.513Z,52.15
2017-11-29T20:47:30.971Z,53.25
2017-11-29T20:49:58.535Z,54.25
2017-11-29T20:52:37.966Z,53.63
2017-11-29T20:55:05.430Z,50.72
2017-11-29T20:57:32.885Z,49.67
2017-11-29T21:00:00.436Z,50.53
2017-11-29T21:02:27.873Z,54.28
2017-11-29T21:04:55.333Z,57.35
2017-11-29T21:07:22.780Z,56.15
2017-11-29T21:09:50.250Z,52.35
2017-11-29T21:12:17.680Z,58.87
2017-11-29T21:14:45.179Z,59.15
2017-11-29T21:17:12.752Z,57.97
2017-11-29T21:19:40.224Z,58.40
2017-11-29T21:22:08.433Z,61.17
2017-11-29T21:24:35.874Z,63.03
2017-11-29T21:27:03.393Z,62.75
2017-11-29T21:29:30.807Z,62.62
2017-11-29T21:31:58.268Z,60.55
2017-11-29T21:34:25.720Z,65.00
2017-11-29T21:36:53.163Z,58.45
2017-11-29T21:39:20.596Z,63.00
2017-11-29T21:41:48.811Z,60.67
2017-11-29T21:44:16.261Z,63.83
2017-11-29T21:46:43.723Z,59.72
2017-11-29T21:49:11.176Z,57.45
2017-11-29T21:51:38.677Z,62.00
2017-11-29T21:54:06.116Z,63.33
2017-11-29T21:56:33.560Z,56.10
2017-11-29T21:59:00.998Z,60.72
2017-11-29T22:01:28.455Z,58.40
2017-11-29T22:03:55.900Z,62.93
2017-11-29T22:06:23.332Z,61.17
2017-11-29T22:08:51.567Z,59.80
2017-11-29T22:11:19.132Z,55.17
2017-11-29T22:13:46.762Z,65.80
2017-11-29T22:16:14.248Z,60.38
2017-11-29T22:18:41.709Z,59.28
2017-11-29T22:21:09.144Z,60.12
2017-11-29T22:23:36.585Z,57.90
2017-11-29T22:26:04.040Z,56.67
2017-11-29T22:28:31.909Z,58.85
2017-11-29T22:30:59.346Z,60.83
2017-11-29T22:33:26.860Z,56.05
2017-11-29T22:35:54.417Z,60.08
2017-11-29T22:38:21.860Z,59.15
2017-11-29T22:40:49.295Z,61.33
2017-11-29T22:43:16.735Z,60.97
2017-11-29T22:45:44.173Z,58.53
2017-11-29T22:48:12.412Z,61.37
2017-11-29T22:50:39.860Z,59.60
2017-11-29T22:53:07.426Z,61.88
2017-11-29T22:55:34.865Z,58.85
2017-11-29T22:58:02.336Z,58.28
2017-11-29T23:00:29.794Z,61.47
2017-11-29T23:02:57.368Z,60.10
2017-11-29T23:05:24.812Z,63.50
2017-11-29T23:07:52.385Z,63.45
2017-11-29T23:10:19.836Z,60.33
2017-11-29T23:12:47.295Z,58.40
2017-11-29T23:15:14.931Z,58.67
2017-11-29T23:17:42.371Z,62.03
2017-11-29T23:20:09.856Z,60.25
2017-11-29T23:22:37.306Z,61.47
2017-11-29T23:25:04.788Z,62.03
2017-11-29T23:27:32.256Z,56.85
2017-11-29T23:30:00.486Z,53.85
2017-11-29T23:32:28.066Z,55.33
2017-11-29T23:34:55.630Z,52.58
2017-11-29T23:37:23.092Z,47.40
2017-11-29T23:39:50.588Z,49.80
2017-11-29T23:42:18.034Z,48.87
2017-11-29T23:44:45.487Z,51.00
2017-11-29T23:47:13.006Z,44.50
2017-11-29T23:49:40.553Z,50.22
2017-11-29T23:52:08.022Z,44.70
2017-11-29T23:54:35.666Z,46.97
2017-11-29T23:57:03.124Z,46.17
2017-11-29T23:59:30.555Z,47.70
